Time;durP1;ratioP1;P1;durP2;ratioP2;P2;SDS_P1;SDS_P2;PMS_P1;PMS_P2;Temp;Humidity;BMP_temperature;BMP_pressure;BME280_temperature;BME280_humidity;BME280_pressure;Samples;Min_cycle;Max_cycle;Signal;HPM_P1;HPM_P2
2021/07/21 00:00:50;;;;;;;4.75;4.35;;;;;;;15.30;63.84;100000.69;256631;1104;116378;-67
2021/07/21 00:05:56;;;;;;;5.47;4.20;;;;;;;15.27;63.55;99997.74;257201;1104;115583;-67
2021/07/21 00:16:33;;;;;;;7.10;4.23;;;;;;;15.19;63.72;100000.91;254434;1104;114926;-68
2021/07/21 00:21:38;;;;;;;9.18;4.55;;;;;;;15.12;64.25;100009.17;255063;1104;115377;-68
2021/07/21 00:26:43;;;;;;;5.00;4.48;;;;;;;15.08;64.13;100002.70;254610;1104;115143;-67
2021/07/21 00:31:48;;;;;;;4.33;3.48;;;;;;;15.08;63.87;100011.56;256564;1104;115510;-68
2021/07/21 00:36:53;;;;;;;11.58;4.50;;;;;;;15.07;64.08;100011.82;254859;1104;114580;-67
2021/07/21 00:41:58;;;;;;;5.75;4.53;;;;;;;15.04;64.17;100018.51;254085;1104;115926;-68
2021/07/21 00:47:03;;;;;;;5.70;3.70;;;;;;;14.94;64.25;100018.45;255628;1098;114946;-68
2021/07/21 00:52:09;;;;;;;4.97;4.20;;;;;;;14.86;64.67;100021.59;254146;1104;114902;-68
2021/07/21 00:57:17;;;;;;;4.58;4.15;;;;;;;14.79;65.17;100023.67;255683;1104;115073;-67
2021/07/21 01:02:22;;;;;;;7.25;5.60;;;;;;;14.71;65.69;100021.45;255304;1104;115216;-68
2021/07/21 01:07:27;;;;;;;4.70;4.28;;;;;;;14.61;65.40;100022.19;253852;1104;115534;-68
2021/07/21 01:12:36;;;;;;;12.78;3.88;;;;;;;14.50;65.49;100028.50;255732;1104;115188;-68
2021/07/21 01:17:51;;;;;;;7.13;4.60;;;;;;;14.46;65.69;100025.52;255296;1104;115151;-68
2021/07/21 01:23:18;;;;;;;6.75;4.80;;;;;;;14.49;66.14;100035.74;255647;1104;117241;-66
2021/07/21 01:28:27;;;;;;;6.83;4.57;;;;;;;14.51;65.95;100037.36;256576;1104;117442;-67
2021/07/21 01:33:37;;;;;;;9.78;4.40;;;;;;;14.49;66.28;100032.25;255202;1104;115506;-66
2021/07/21 01:38:49;;;;;;;4.30;3.58;;;;;;;14.52;66.84;100038.98;256869;1104;115342;-66
2021/07/21 01:44:10;;;;;;;5.43;3.45;;;;;;;14.59;66.94;100037.73;256560;1104;115749;-66
2021/07/21 01:49:16;;;;;;;8.53;5.20;;;;;;;14.65;67.03;100035.91;257097;1104;115485;-67
2021/07/21 01:54:21;;;;;;;8.40;4.07;;;;;;;14.68;66.84;100043.42;257084;1104;115064;-66
2021/07/21 01:59:30;;;;;;;9.10;5.23;;;;;;;14.66;67.23;100038.34;256819;1104;116398;-66
2021/07/21 02:04:39;;;;;;;4.67;4.20;;;;;;;14.57;66.81;100036.36;257423;1104;116002;-65
2021/07/21 02:09:48;;;;;;;4.63;3.90;;;;;;;14.48;66.79;100042.17;257086;1104;114754;-66
2021/07/21 02:14:54;;;;;;;5.50;4.97;;;;;;;14.42;67.40;100050.41;257217;1104;115483;-66
2021/07/21 02:20:02;;;;;;;8.50;4.58;;;;;;;14.30;66.68;100044.36;254315;1104;114874;-66
2021/07/21 02:25:09;;;;;;;7.90;4.58;;;;;;;14.20;67.51;100047.73;256464;1104;115119;-66
2021/07/21 02:30:15;;;;;;;7.95;4.45;;;;;;;14.14;67.13;100054.90;255163;1104;115534;-65
2021/07/21 02:35:21;;;;;;;5.87;4.47;;;;;;;14.14;67.90;100051.41;255174;1104;115246;-65
2021/07/21 02:40:27;;;;;;;7.68;4.48;;;;;;;14.09;68.20;100057.52;257152;1104;115529;-66
2021/07/21 02:45:35;;;;;;;7.55;4.88;;;;;;;13.98;68.04;100054.98;255014;1104;114844;-66
2021/07/21 02:50:42;;;;;;;6.67;4.40;;;;;;;13.87;68.31;100059.38;254532;1104;115298;-64
2021/07/21 02:55:59;;;;;;;6.20;3.80;;;;;;;13.88;68.52;100065.55;255464;1104;115601;-66
2021/07/21 03:01:04;;;;;;;6.78;4.13;;;;;;;13.89;68.60;100067.98;254499;1104;115600;-67
2021/07/21 03:06:10;;;;;;;7.15;5.40;;;;;;;13.88;69.19;100076.27;253804;1104;114849;-66
2021/07/21 03:11:16;;;;;;;4.50;4.10;;;;;;;13.86;68.99;100084.56;254237;1097;114711;-67
2021/07/21 03:16:34;;;;;;;5.10;4.70;;;;;;;13.80;69.25;100080.99;255163;1099;116076;-67
2021/07/21 03:21:40;;;;;;;4.53;3.95;;;;;;;13.85;69.06;100090.16;255705;1098;115202;-66
2021/07/21 03:26:48;;;;;;;7.50;5.35;;;;;;;13.91;69.44;100097.22;254837;1104;115460;-66
2021/07/21 03:31:53;;;;;;;7.05;4.25;;;;;;;13.95;69.51;100103.71;254231;1104;117933;-66
2021/07/21 03:36:59;;;;;;;10.80;3.95;;;;;;;14.01;69.91;100108.09;255534;1104;115416;-66
2021/07/21 03:42:05;;;;;;;4.90;3.95;;;;;;;14.11;70.03;100108.20;256954;1104;115951;-66
2021/07/21 03:47:16;;;;;;;8.27;4.53;;;;;;;14.22;69.67;100119.88;256011;1100;116092;-66
2021/07/21 03:52:23;;;;;;;5.33;4.43;;;;;;;14.38;69.87;100116.30;257134;1104;115386;-66
2021/07/21 03:57:29;;;;;;;4.95;4.40;;;;;;;14.50;69.95;100119.70;257207;1104;115161;-66
2021/07/21 04:02:35;;;;;;;7.50;4.40;;;;;;;14.75;69.56;100127.22;257261;1104;115731;-66
2021/07/21 04:07:40;;;;;;;8.53;5.35;;;;;;;15.00;70.22;100132.03;255976;1104;116877;-66
2021/07/21 04:12:47;;;;;;;4.83;4.48;;;;;;;15.24;69.90;100129.85;257178;1104;116039;-66
2021/07/21 04:17:54;;;;;;;6.28;4.83;;;;;;;15.54;69.80;100124.72;257007;1104;117077;-66
2021/07/21 04:22:59;;;;;;;7.28;4.60;;;;;;;15.74;69.15;100135.63;257038;1104;117182;-65
2021/07/21 04:28:05;;;;;;;5.70;5.10;;;;;;;16.13;68.94;100136.14;257208;1104;116860;-65
2021/07/21 04:33:09;;;;;;;5.05;4.28;;;;;;;16.45;68.40;100141.39;257086;1104;116160;-65
2021/07/21 04:38:15;;;;;;;7.83;5.00;;;;;;;17.01;68.28;100146.95;255899;1104;116881;-67
2021/07/21 04:43:19;;;;;;;7.28;5.80;;;;;;;17.84;66.85;100152.91;255409;1099;116054;-66
2021/07/21 04:48:23;;;;;;;5.30;4.30;;;;;;;18.39;66.56;100153.83;254908;1104;117619;-67
2021/07/21 04:53:28;;;;;;;5.37;4.87;;;;;;;18.72;65.58;100156.95;254971;1104;116463;-67
2021/07/21 04:58:33;;;;;;;10.35;4.98;;;;;;;18.70;65.44;100157.22;253991;1104;116731;-67
2021/07/21 05:03:38;;;;;;;10.43;4.75;;;;;;;18.54;65.13;100166.47;255712;1104;117987;-67
2021/07/21 05:08:42;;;;;;;6.50;5.68;;;;;;;19.98;63.34;100176.83;253988;1104;115096;-67
2021/07/21 05:13:48;;;;;;;4.95;3.83;;;;;;;20.65;62.80;100174.20;254383;1104;115606;-68
2021/07/21 05:18:53;;;;;;;5.70;4.95;;;;;;;21.24;61.79;100164.73;254666;1104;115992;-67
2021/07/21 05:23:56;;;;;;;8.75;4.73;;;;;;;24.33;57.87;100171.69;256789;1104;115700;-67
2021/07/21 05:29:02;;;;;;;6.13;4.30;;;;;;;27.74;54.49;100175.08;255470;1104;116396;-70
2021/07/21 05:34:06;;;;;;;5.43;4.43;;;;;;;30.37;50.77;100182.86;255813;1104;116936;-69
2021/07/21 05:39:10;;;;;;;4.75;4.20;;;;;;;32.52;47.02;100191.47;257238;1104;116038;-70
2021/07/21 05:44:15;;;;;;;3.30;3.00;;;;;;;34.26;43.73;100191.58;257011;1104;115346;-68
2021/07/21 05:49:21;;;;;;;2.73;2.53;;;;;;;35.69;41.15;100199.50;254099;1104;117696;-68
2021/07/21 05:54:25;;;;;;;2.88;2.00;;;;;;;36.68;37.97;100206.29;253894;1104;115913;-67
2021/07/21 05:59:30;;;;;;;9.08;3.40;;;;;;;37.73;36.10;100209.88;253545;1104;116524;-69
2021/07/21 06:04:34;;;;;;;1.93;1.83;;;;;;;38.33;34.68;100216.98;257116;1104;116190;-68
2021/07/21 06:09:39;;;;;;;4.78;2.00;;;;;;;38.02;33.09;100220.80;256977;1104;117159;-71
2021/07/21 06:14:43;;;;;;;2.08;1.95;;;;;;;38.57;32.19;100209.63;257017;1104;117408;-71
2021/07/21 06:19:47;;;;;;;5.18;1.88;;;;;;;39.18;31.11;100220.90;256987;1104;117954;-71
2021/07/21 06:24:52;;;;;;;3.53;2.83;;;;;;;39.44;29.94;100221.39;256964;1104;116945;-71
2021/07/21 06:29:56;;;;;;;4.93;2.63;;;;;;;39.14;29.48;100225.73;253571;1104;116361;-71
2021/07/21 06:35:00;;;;;;;2.20;2.00;;;;;;;38.40;29.02;100225.28;254669;1104;116659;-70
2021/07/21 06:40:05;;;;;;;3.13;1.75;;;;;;;37.83;28.72;100232.48;253838;1104;116923;-71
2021/07/21 06:45:14;;;;;;;1.83;1.70;;;;;;;36.41;29.64;100237.24;253561;1104;117080;-72
2021/07/21 06:50:19;;;;;;;8.98;2.85;;;;;;;35.41;30.28;100229.92;255946;1104;116875;-70
2021/07/21 06:55:23;;;;;;;5.10;2.23;;;;;;;34.75;30.42;100232.70;253620;1104;117187;-69
2021/07/21 07:00:28;;;;;;;2.20;2.00;;;;;;;33.74;30.97;100237.70;253491;1104;117654;-69
2021/07/21 07:05:33;;;;;;;3.20;2.90;;;;;;;32.36;32.30;100233.83;254124;1104;117820;-71
2021/07/21 07:10:39;;;;;;;4.20;3.33;;;;;;;31.59;32.98;100233.14;253711;1104;116398;-70
2021/07/21 07:15:44;;;;;;;5.30;3.03;;;;;;;31.91;32.85;100231.81;253624;1104;117286;-72
2021/07/21 07:20:53;;;;;;;7.60;3.05;;;;;;;32.62;32.58;100237.77;253779;1104;118042;-70
2021/07/21 07:25:57;;;;;;;2.90;2.60;;;;;;;32.93;32.87;100236.68;253515;1104;115765;-70
2021/07/21 07:31:03;;;;;;;4.38;3.18;;;;;;;32.57;32.63;100238.88;253378;1104;115764;-69
2021/07/21 07:36:07;;;;;;;6.65;3.08;;;;;;;32.41;33.00;100239.00;257010;1104;115913;-70
2021/07/21 07:41:11;;;;;;;3.75;2.38;;;;;;;32.01;32.86;100224.91;254933;1104;115486;-69
2021/07/21 07:46:15;;;;;;;5.10;2.93;;;;;;;31.56;33.94;100231.91;253584;1098;115894;-70
2021/07/21 07:51:20;;;;;;;4.53;2.90;;;;;;;31.17;34.46;100233.09;253576;1104;118050;-70
2021/07/21 07:56:24;;;;;;;4.45;3.40;;;;;;;30.87;34.42;100232.80;253368;1104;202457;-69
2021/07/21 08:01:28;;;;;;;4.18;3.28;;;;;;;30.75;34.91;100222.69;253456;1103;115452;-69
2021/07/21 08:06:34;;;;;;;4.08;3.75;;;;;;;30.75;35.91;100219.94;254507;1104;115821;-71
2021/07/21 08:11:45;;;;;;;5.60;4.63;;;;;;;30.67;35.39;100220.91;257024;1104;116054;-71
2021/07/21 08:16:51;;;;;;;6.43;3.93;;;;;;;29.88;34.98;100231.08;257441;1104;116282;-69
2021/07/21 08:21:57;;;;;;;4.95;4.23;;;;;;;29.68;36.71;100230.13;257053;1104;116459;-69
2021/07/21 08:27:01;;;;;;;6.20;5.13;;;;;;;29.25;36.48;100231.66;257062;1104;117306;-70
2021/07/21 08:32:14;;;;;;;6.30;3.70;;;;;;;29.43;36.88;100235.73;257055;1104;117350;-70
2021/07/21 08:37:19;;;;;;;5.63;4.25;;;;;;;29.37;36.62;100233.55;257028;1104;116246;-70
2021/07/21 08:42:24;;;;;;;4.75;3.70;;;;;;;28.88;36.75;100233.67;256966;1104;117551;-71
2021/07/21 08:47:27;;;;;;;4.58;4.18;;;;;;;28.94;37.41;100235.05;256935;1104;116834;-70
2021/07/21 08:52:32;;;;;;;3.48;3.18;;;;;;;28.95;37.31;100233.90;254345;1104;117235;-70
2021/07/21 08:57:37;;;;;;;8.05;5.28;;;;;;;28.45;37.24;100240.50;254704;1104;116266;-69
2021/07/21 09:02:44;;;;;;;4.85;4.35;;;;;;;28.01;37.42;100233.92;255660;1104;117176;-68
2021/07/21 09:07:52;;;;;;;5.33;4.80;;;;;;;27.26;37.61;100240.55;254783;1104;116540;-70
2021/07/21 09:12:58;;;;;;;7.43;4.95;;;;;;;26.96;38.54;100232.39;254254;1104;117507;-70
2021/07/21 09:18:08;;;;;;;6.45;5.08;;;;;;;26.67;38.71;100240.58;254159;1104;116892;-70
2021/07/21 09:23:13;;;;;;;5.15;4.55;;;;;;;26.16;39.27;100247.84;255405;1104;115376;-69
2021/07/21 09:28:20;;;;;;;4.35;3.95;;;;;;;25.86;39.95;100246.95;254828;1104;115164;-70
2021/07/21 09:33:26;;;;;;;6.77;4.63;;;;;;;25.79;40.50;100241.18;254366;1104;115288;-69
2021/07/21 09:38:31;;;;;;;;;;;;;;;25.46;41.31;100241.66;254761;1104;115852;-69
2021/07/21 09:43:36;;;;;;;8.53;4.23;;;;;;;25.33;41.61;100250.02;255342;1104;104274;-70
2021/07/21 09:48:40;;;;;;;;;;;;;;;25.53;42.27;100243.91;255581;1104;115943;-71
2021/07/21 09:53:49;;;;;;;7.55;4.85;;;;;;;26.15;42.80;100241.58;255522;1104;105056;-71
2021/07/21 09:58:54;;;;;;;4.38;3.98;;;;;;;26.36;42.00;100241.69;254980;1104;115513;-71
2021/07/21 10:04:05;;;;;;;7.30;4.78;;;;;;;26.56;41.36;100245.64;253937;1104;116733;-70
2021/07/21 10:09:11;;;;;;;6.30;4.38;;;;;;;26.51;40.62;100240.35;255194;1104;116011;-71
2021/07/21 10:14:16;;;;;;;5.58;4.48;;;;;;;26.99;41.26;100230.92;254355;1104;117458;-70
2021/07/21 10:19:27;;;;;;;5.50;4.23;;;;;;;27.37;40.97;100228.88;254121;1104;117033;-71
2021/07/21 10:24:35;;;;;;;4.08;3.68;;;;;;;27.81;40.58;100221.89;257244;1104;115421;-70
2021/07/21 10:29:41;;;;;;;14.73;4.80;;;;;;;27.72;39.47;100223.11;257151;1104;115394;-70
2021/07/21 10:34:47;;;;;;;11.73;4.33;;;;;;;27.12;39.53;100230.69;256967;1104;115861;-70
2021/07/21 10:39:58;;;;;;;5.23;4.13;;;;;;;26.36;40.04;100225.28;256919;1104;115234;-71
2021/07/21 10:45:18;;;;;;;7.25;4.33;;;;;;;25.76;40.43;100234.44;254483;1100;115572;-70
2021/07/21 10:50:47;;;;;;;4.35;3.95;;;;;;;25.42;40.92;100239.89;254733;1104;116326;-71
2021/07/21 10:59:11;;;;;;;8.78;4.30;;;;;;;25.25;41.81;100246.16;254639;1104;115956;-70
2021/07/21 11:01:29;;;;;;;6.50;3.93;;;;;;;25.08;41.94;100244.20;255102;1104;115308;-70
2021/07/21 11:06:41;;;;;;;5.83;3.45;;;;;;;25.14;43.01;100240.20;255376;1104;117837;-70
2021/07/21 11:11:50;;;;;;;4.25;3.85;;;;;;;25.65;42.85;100230.45;254770;1104;115999;-70
2021/07/21 11:17:15;;;;;;;51.55;26.70;;;;;;;26.21;42.11;100231.28;254139;1099;117498;-71
2021/07/21 11:22:20;;;;;;;2.95;2.65;;;;;;;26.55;41.29;100226.83;254875;1104;116235;-70
2021/07/21 11:27:42;;;;;;;4.30;3.90;;;;;;;26.65;41.21;100215.50;254065;1104;116209;-69
2021/07/21 11:32:47;;;;;;;5.38;3.50;;;;;;;26.73;40.96;100214.66;254491;1104;115658;-70
2021/07/21 11:37:53;;;;;;;3.13;2.85;;;;;;;27.06;40.81;100212.85;254139;1104;115725;-70
2021/07/21 11:43:31;;;;;;;36.20;16.50;;;;;;;27.32;39.84;100222.80;253914;1100;116331;-69
2021/07/21 11:48:36;;;;;;;6.75;3.80;;;;;;;27.28;39.60;100224.59;255343;1100;115847;-70
2021/07/21 11:53:47;;;;;;;5.20;4.70;;;;;;;26.87;38.96;100234.38;254801;1104;115753;-70
2021/07/21 11:59:03;;;;;;;8.28;5.15;;;;;;;26.30;39.38;100233.95;254542;1104;115935;-68
2021/07/21 12:04:08;;;;;;;3.85;3.55;;;;;;;25.75;39.59;100232.02;255220;1104;115865;-69
2021/07/21 12:09:26;;;;;;;5.68;3.68;;;;;;;25.54;39.95;100229.14;255185;1104;116656;-70
2021/07/21 12:14:30;;;;;;;5.38;4.03;;;;;;;25.36;40.46;100231.08;254884;1104;117564;-70
2021/07/21 12:19:42;;;;;;;5.37;3.83;;;;;;;25.29;40.53;100219.84;254213;1104;116530;-69
2021/07/21 12:24:48;;;;;;;5.48;4.68;;;;;;;25.48;40.25;100211.31;254521;1104;117218;-69
2021/07/21 12:29:52;;;;;;;4.80;4.25;;;;;;;25.72;40.43;100211.63;255969;1104;116439;-70
2021/07/21 12:34:57;;;;;;;4.93;4.45;;;;;;;25.94;40.24;100212.56;256765;1104;117220;-68
2021/07/21 12:40:07;;;;;;;4.73;4.33;;;;;;;25.90;40.60;100217.07;254434;1104;116886;-66
2021/07/21 12:45:15;;;;;;;8.30;3.85;;;;;;;25.99;39.88;100224.09;255439;1104;116824;-68
2021/07/21 12:50:30;;;;;;;4.80;4.15;;;;;;;26.08;39.50;100219.42;253993;1099;115912;-69
2021/07/21 12:55:43;;;;;;;4.40;3.95;;;;;;;26.03;39.30;100216.05;254119;1104;115663;-68
2021/07/21 13:00:53;;;;;;;7.10;3.80;;;;;;;25.89;38.96;100218.20;254882;1104;117301;-68
2021/07/21 13:06:00;;;;;;;3.68;3.38;;;;;;;25.84;39.60;100209.05;254283;1104;116101;-69
2021/07/21 13:11:11;;;;;;;4.55;3.48;;;;;;;25.76;39.38;100209.86;255083;1104;116002;-70
2021/07/21 13:16:22;;;;;;;3.95;2.80;;;;;;;25.62;38.73;100206.50;253908;1104;115996;-68
2021/07/21 13:21:27;;;;;;;3.03;2.68;;;;;;;25.56;39.75;100209.70;254447;1104;116970;-69
2021/07/21 13:26:33;;;;;;;4.40;2.90;;;;;;;25.60;38.41;100211.47;254551;1104;116317;-67
2021/07/21 13:31:40;;;;;;;4.10;2.75;;;;;;;25.55;38.64;100219.83;255578;1104;116183;-67
2021/07/21 13:36:46;;;;;;;3.60;2.93;;;;;;;25.37;38.60;100221.77;254944;1104;115785;-69
2021/07/21 13:41:52;;;;;;;22.63;4.38;;;;;;;25.23;37.74;100223.04;254827;1104;118026;-67
2021/07/21 13:47:03;;;;;;;12.05;7.60;;;;;;;25.12;38.48;100223.34;254444;1098;116707;-67
2021/07/21 13:52:11;;;;;;;6.78;3.35;;;;;;;25.27;38.37;100216.63;254175;1104;117597;-67
2021/07/21 13:57:18;;;;;;;3.08;2.88;;;;;;;25.17;39.12;100222.39;254864;1104;117063;-66
2021/07/21 14:02:29;;;;;;;3.10;2.87;;;;;;;24.95;39.00;100226.06;255186;1104;116802;-67
2021/07/21 14:07:35;;;;;;;4.17;3.73;;;;;;;24.76;39.60;100236.44;254004;1104;117034;-66
2021/07/21 14:12:40;;;;;;;6.40;3.38;;;;;;;24.50;40.15;100234.41;254028;1104;116200;-66
2021/07/21 14:17:45;;;;;;;4.46;3.68;;;;;;;24.27;40.30;100238.32;254162;1104;116027;-65
2021/07/21 14:22:49;;;;;;;4.80;4.03;;;;;;;24.01;40.53;100240.08;255127;1104;115729;-66
2021/07/21 14:27:54;;;;;;;3.67;3.37;;;;;;;23.84;41.08;100238.88;254545;1104;116074;-67
2021/07/21 14:32:58;;;;;;;9.38;3.70;;;;;;;23.79;41.47;100235.47;253898;1104;116082;-69
2021/07/21 14:38:03;;;;;;;4.28;3.83;;;;;;;23.82;41.70;100235.66;254691;1104;116719;-68
2021/07/21 14:43:08;;;;;;;4.33;3.30;;;;;;;23.84;41.89;100233.43;257156;1104;115396;-68
2021/07/21 14:48:13;;;;;;;7.38;3.40;;;;;;;23.84;42.23;100235.34;257247;1104;115728;-68
2021/07/21 14:53:18;;;;;;;5.75;3.28;;;;;;;23.85;42.59;100237.73;257332;1104;115801;-67
2021/07/21 14:58:22;;;;;;;7.93;3.50;;;;;;;23.86;42.95;100241.26;257251;1104;115859;-66
2021/07/21 15:03:27;;;;;;;10.28;3.63;;;;;;;23.78;43.04;100244.75;256799;1104;115769;-66
2021/07/21 15:08:34;;;;;;;3.63;2.70;;;;;;;23.66;43.36;100253.46;254994;1104;118644;-67
2021/07/21 15:13:39;;;;;;;6.63;3.33;;;;;;;23.55;43.22;100246.64;255133;1104;115705;-67
2021/07/21 15:18:43;;;;;;;5.68;3.25;;;;;;;23.51;43.56;100249.17;256776;1104;115663;-66
2021/07/21 15:23:48;;;;;;;2.98;2.78;;;;;;;23.52;43.76;100249.98;254401;1104;115614;-66
2021/07/21 15:28:52;;;;;;;3.18;2.35;;;;;;;23.51;43.72;100248.38;254914;1104;116967;-69
2021/07/21 15:33:56;;;;;;;3.20;2.93;;;;;;;23.46;43.82;100241.13;254160;1104;116852;-67
2021/07/21 15:39:15;;;;;;;3.17;2.87;;;;;;;23.36;43.87;100246.80;253368;1104;117647;-67
2021/07/21 15:44:20;;;;;;;3.78;3.25;;;;;;;23.21;44.27;100240.91;253419;1104;115680;-67
2021/07/21 15:49:25;;;;;;;6.13;3.15;;;;;;;23.14;45.06;100242.13;254046;1104;117075;-67
2021/07/21 15:54:29;;;;;;;7.43;2.60;;;;;;;23.04;45.23;100238.81;253680;1104;116184;-67
2021/07/21 15:59:34;;;;;;;4.73;3.33;;;;;;;22.97;45.75;100238.42;254130;1099;116054;-67
2021/07/21 16:04:38;;;;;;;3.20;2.75;;;;;;;22.91;45.84;100235.03;253703;1104;115635;-66
2021/07/21 16:09:43;;;;;;;8.35;2.98;;;;;;;22.87;46.25;100238.66;253432;1104;115724;-67
2021/07/21 16:14:48;;;;;;;3.17;2.90;;;;;;;22.84;46.39;100240.06;253466;1104;115431;-67
2021/07/21 16:19:53;;;;;;;18.63;3.03;;;;;;;22.81;46.43;100243.39;253699;1098;116209;-67
2021/07/21 16:24:59;;;;;;;4.08;3.20;;;;;;;22.77;46.97;100235.00;253419;1098;116406;-68
2021/07/21 16:30:05;;;;;;;3.63;3.13;;;;;;;22.72;46.93;100237.02;253641;1104;115840;-67
2021/07/21 16:35:12;;;;;;;4.13;2.85;;;;;;;22.65;47.18;100236.61;254467;1104;115717;-65
2021/07/21 16:40:17;;;;;;;6.30;3.43;;;;;;;22.59;47.58;100221.53;255178;1104;116176;-66
2021/07/21 16:45:22;;;;;;;6.15;2.40;;;;;;;22.53;47.71;100234.41;255744;1098;115560;-66
2021/07/21 16:50:27;;;;;;;2.95;2.18;;;;;;;22.46;47.45;100234.00;253958;1104;115286;-66
2021/07/21 16:55:31;;;;;;;2.95;2.68;;;;;;;22.41;48.16;100242.24;257114;1104;115923;-67
2021/07/21 17:00:37;;;;;;;2.60;2.40;;;;;;;22.34;48.04;100245.35;257092;1104;115728;-66
2021/07/21 17:05:41;;;;;;;2.70;2.50;;;;;;;22.28;48.01;100248.48;257051;1104;115223;-70
2021/07/21 17:10:46;;;;;;;4.78;2.33;;;;;;;22.21;48.25;100250.78;257049;1104;115661;-70
2021/07/21 17:15:51;;;;;;;2.85;1.70;;;;;;;22.15;48.30;100241.92;253587;1104;117307;-66
2021/07/21 17:20:56;;;;;;;4.05;2.50;;;;;;;22.08;48.56;100255.88;253605;1098;115496;-68
2021/07/21 17:26:00;;;;;;;2.18;2.00;;;;;;;21.98;48.59;100258.75;253648;1104;116226;-66
2021/07/21 17:31:06;;;;;;;2.67;2.47;;;;;;;21.82;48.59;100258.19;255104;1104;116093;-68
2021/07/21 17:36:10;;;;;;;1.78;1.68;;;;;;;21.72;48.76;100263.77;253987;1104;116022;-66
2021/07/21 17:41:15;;;;;;;4.57;2.27;;;;;;;21.59;48.73;100259.11;254038;1104;115707;-67
2021/07/21 17:46:22;;;;;;;2.00;1.83;;;;;;;21.48;49.10;100263.88;254099;1104;115544;-66
2021/07/21 17:51:27;;;;;;;2.68;2.10;;;;;;;21.38;49.39;100263.23;254665;1104;117238;-66
2021/07/21 17:56:32;;;;;;;3.52;1.36;;;;;;;21.24;49.64;100270.47;254862;1104;115623;-67
2021/07/21 18:01:38;;;;;;;1.58;1.48;;;;;;;21.14;49.88;100271.38;253566;1104;115931;-67
2021/07/21 18:06:43;;;;;;;;;;;;;;;21.03;50.10;100268.02;254439;1104;115428;-66
2021/07/21 18:11:48;;;;;;;3.28;2.35;;;;;;;20.95;50.35;100271.36;255860;1104;103741;-66
2021/07/21 18:16:53;;;;;;;3.15;1.88;;;;;;;20.84;51.23;100267.16;253696;1104;115454;-69
2021/07/21 18:21:59;;;;;;;6.23;1.68;;;;;;;20.69;51.76;100265.45;254899;1104;115575;-70
2021/07/21 18:27:04;;;;;;;2.98;2.70;;;;;;;20.56;52.05;100270.73;253968;1104;120004;-67
2021/07/21 18:32:09;;;;;;;2.48;1.98;;;;;;;20.37;52.34;100273.35;253549;1104;115324;-69
2021/07/21 18:37:13;;;;;;;2.60;2.48;;;;;;;20.18;53.08;100267.83;253705;1104;115117;-66
2021/07/21 18:42:17;;;;;;;3.23;2.13;;;;;;;20.06;53.42;100279.05;256274;1104;115026;-66
2021/07/21 18:47:22;;;;;;;2.50;2.30;;;;;;;19.95;54.16;100277.52;253544;1104;115229;-67
2021/07/21 18:52:26;;;;;;;2.63;2.30;;;;;;;19.79;54.54;100282.26;254474;1104;115103;-66
2021/07/21 18:57:30;;;;;;;2.05;1.95;;;;;;;19.64;55.28;100282.35;257135;1104;115121;-66
2021/07/21 19:02:34;;;;;;;4.05;2.25;;;;;;;19.54;55.33;100279.73;257005;1104;116928;-66
2021/07/21 19:07:38;;;;;;;2.93;2.28;;;;;;;19.46;56.17;100288.41;257047;1104;116021;-66
2021/07/21 19:12:44;;;;;;;5.20;3.08;;;;;;;19.35;56.41;100287.64;257022;1104;115284;-67
2021/07/21 19:17:50;;;;;;;3.15;2.45;;;;;;;19.25;56.77;100297.73;256092;1104;116473;-68
2021/07/21 19:22:54;;;;;;;3.18;2.53;;;;;;;19.20;56.96;100305.85;254919;1104;114726;-69
2021/07/21 19:28:03;;;;;;;5.68;2.88;;;;;;;19.15;57.38;100295.88;256038;1104;115596;-67
2021/07/21 19:33:08;;;;;;;3.30;2.70;;;;;;;19.13;57.86;100303.45;254171;1099;115557;-63
2021/07/21 19:38:13;;;;;;;4.95;2.78;;;;;;;19.00;58.08;100301.33;254976;1104;115974;-66
2021/07/21 19:43:20;;;;;;;4.60;4.20;;;;;;;18.86;58.67;100306.53;253656;1100;115594;-64
2021/07/21 19:48:26;;;;;;;3.48;3.18;;;;;;;18.76;59.05;100317.36;255594;1104;117046;-65
2021/07/21 19:53:32;;;;;;;6.25;4.50;;;;;;;18.66;58.90;100306.57;254605;1104;115857;-65
2021/07/21 19:58:38;;;;;;;7.90;5.40;;;;;;;18.58;59.60;100304.42;254589;1104;116158;-66
2021/07/21 20:03:45;;;;;;;13.15;7.00;;;;;;;18.53;59.98;100318.73;255229;1104;115704;-64
2021/07/21 20:08:50;;;;;;;8.65;6.58;;;;;;;18.38;60.47;100313.34;254573;1104;116112;-66
2021/07/21 20:13:56;;;;;;;10.45;7.10;;;;;;;18.21;60.71;100320.93;255035;1104;117440;-66
2021/07/21 20:19:02;;;;;;;9.43;6.78;;;;;;;17.99;60.97;100308.53;255970;1100;115922;-66
2021/07/21 20:24:07;;;;;;;10.65;6.83;;;;;;;17.77;61.43;100306.07;255107;1104;117157;-66
2021/07/21 20:29:13;;;;;;;11.85;7.33;;;;;;;17.60;61.85;100304.68;254901;1104;115982;-64
2021/07/21 20:34:18;;;;;;;8.38;5.58;;;;;;;17.51;62.20;100313.28;255317;1104;115750;-65
2021/07/21 20:39:24;;;;;;;6.73;4.73;;;;;;;17.55;62.45;100315.45;255768;1104;116337;-68
2021/07/21 20:44:30;;;;;;;4.80;3.90;;;;;;;17.41;62.52;100317.86;253862;1104;115966;-67
2021/07/21 20:49:35;;;;;;;4.20;3.78;;;;;;;17.31;62.72;100323.20;256020;1104;115511;-69
2021/07/21 20:54:41;;;;;;;5.60;3.70;;;;;;;17.26;63.57;100325.88;256813;1104;116046;-68
2021/07/21 20:59:46;;;;;;;4.10;3.70;;;;;;;17.24;63.73;100328.03;257240;1104;115379;-68
2021/07/21 21:04:52;;;;;;;6.08;4.38;;;;;;;17.22;63.97;100322.09;257169;1104;115287;-66
2021/07/21 21:09:57;;;;;;;4.18;3.78;;;;;;;17.26;64.13;100328.58;257343;1104;116527;-70
2021/07/21 21:15:04;;;;;;;10.38;4.83;;;;;;;17.37;64.50;100327.55;257278;1104;116914;-70
2021/07/21 21:20:13;;;;;;;5.17;3.90;;;;;;;17.42;64.48;100327.56;254225;1104;115932;-68
2021/07/21 21:25:18;;;;;;;5.65;3.80;;;;;;;17.36;64.77;100334.81;256870;1104;115385;-68
2021/07/21 21:30:24;;;;;;;4.85;4.18;;;;;;;17.33;65.19;100334.53;257102;1104;116518;-66
2021/07/21 21:35:30;;;;;;;4.72;4.20;;;;;;;17.35;64.83;100329.69;257300;1104;115617;-69
2021/07/21 21:40:35;;;;;;;7.53;4.00;;;;;;;17.37;65.34;100339.13;257190;1104;115667;-69
2021/07/21 21:45:40;;;;;;;5.90;4.18;;;;;;;17.39;65.10;100338.88;255307;1104;115242;-67
2021/07/21 21:50:46;;;;;;;9.68;4.40;;;;;;;17.29;65.03;100341.52;255150;1104;115152;-67
2021/07/21 21:55:51;;;;;;;4.13;3.83;;;;;;;17.23;65.03;100342.56;255438;1099;115073;-68
2021/07/21 22:00:57;;;;;;;6.73;4.78;;;;;;;17.16;64.93;100348.19;256563;1104;115411;-68
2021/07/21 22:06:04;;;;;;;5.35;4.30;;;;;;;17.12;65.18;100344.43;254719;1104;117038;-68
2021/07/21 22:11:10;;;;;;;12.80;4.73;;;;;;;17.05;65.49;100355.44;254945;1104;115087;-67
2021/07/21 22:16:16;;;;;;;5.78;4.40;;;;;;;16.97;65.65;100357.81;254823;1100;116059;-67
2021/07/21 22:21:22;;;;;;;6.83;4.58;;;;;;;16.90;65.79;100355.34;254390;1100;115341;-67
2021/07/21 22:26:27;;;;;;;6.83;4.35;;;;;;;16.78;65.91;100358.27;254328;1104;115839;-67
2021/07/21 22:31:42;;;;;;;6.15;4.58;;;;;;;16.69;66.09;100359.00;255258;1104;115539;-67
2021/07/21 22:36:58;;;;;;;14.95;4.20;;;;;;;16.62;66.78;100363.77;254011;1104;115514;-67
2021/07/21 22:42:07;;;;;;;6.00;5.40;;;;;;;16.65;67.05;100352.51;255131;1104;116051;-67
2021/07/21 22:47:12;;;;;;;9.15;4.85;;;;;;;16.69;67.18;100367.08;255855;1104;116567;-67
2021/07/21 22:52:18;;;;;;;13.33;5.28;;;;;;;16.72;67.28;100359.30;257240;1104;115175;-67
2021/07/21 22:57:23;;;;;;;8.18;4.80;;;;;;;16.75;67.48;100355.27;254726;1104;115698;-67
2021/07/21 23:03:05;;;;;;;5.50;4.95;;;;;;;16.73;67.47;100352.03;257242;1104;115728;-67
2021/07/21 23:08:47;;;;;;;7.80;5.63;;;;;;;16.68;67.57;100354.69;256219;1104;115605;-68
2021/07/21 23:14:30;;;;;;;5.38;4.88;;;;;;;16.68;67.64;100354.69;256933;1104;115219;-68
2021/07/21 23:19:34;;;;;;;9.53;5.15;;;;;;;16.70;67.80;100366.81;257230;1104;115383;-67